Time;durP1;ratioP1;P1;durP2;ratioP2;P2;SDS_P1;SDS_P2;PMS_P1;PMS_P2;Temp;Humidity;BMP_temperature;BMP_pressure;BME280_temperature;BME280_humidity;BME280_pressure;Samples;Min_cycle;Max_cycle;Signal;HPM_P1;HPM_P2
2023/10/10 00:00:23;;;;;;;;;;;15.00;99.90;;;;;;5040240;28;25060;-52
2023/10/10 00:02:50;;;;;;;;;;;14.90;99.90;;;;;;5040268;28;25149;-54
2023/10/10 00:05:18;;;;;;;;;;;15.00;99.90;;;;;;5039852;28;25069;-53
2023/10/10 00:07:44;;;;;;;;;;;15.00;99.90;;;;;;5038938;28;25128;-53
2023/10/10 00:10:13;;;;;;;;;;;15.00;99.90;;;;;;5037865;28;25057;-56
2023/10/10 00:12:40;;;;;;;;;;;15.00;99.90;;;;;;5039447;28;25098;-54
2023/10/10 00:15:10;;;;;;;;;;;15.00;99.90;;;;;;5037497;28;25101;-54
2023/10/10 00:17:36;;;;;;;;;;;15.00;99.90;;;;;;5039367;28;25131;-52
2023/10/10 00:20:16;;;;;;;;;;;15.00;99.90;;;;;;5038272;28;25173;-54
2023/10/10 00:22:43;;;;;;;;;;;15.00;99.90;;;;;;5038357;28;25079;-54
2023/10/10 00:25:19;;;;;;;;;;;15.10;99.90;;;;;;5041170;28;25094;-54
2023/10/10 00:27:46;;;;;;;;;;;15.00;99.90;;;;;;5039948;28;25131;-54
2023/10/10 00:30:12;;;;;;;;;;;15.00;99.90;;;;;;5039020;28;25066;-54
2023/10/10 00:32:42;;;;;;;;;;;15.00;99.90;;;;;;5039246;28;25118;-54
2023/10/10 00:35:09;;;;;;;;;;;15.00;99.90;;;;;;5040143;28;25108;-55
2023/10/10 00:37:35;;;;;;;;;;;15.00;99.90;;;;;;5039111;28;25110;-55
2023/10/10 00:40:07;;;;;;;;;;;15.00;99.90;;;;;;5037846;28;25090;-54
2023/10/10 00:42:42;;;;;;;;;;;14.90;99.90;;;;;;5039462;28;25102;-54
2023/10/10 00:45:14;;;;;;;;;;;15.00;99.90;;;;;;5040210;28;25109;-54
2023/10/10 00:47:43;;;;;;;;;;;15.00;99.90;;;;;;5038452;28;29111;-55
2023/10/10 00:50:16;;;;;;;;;;;14.90;99.90;;;;;;5038944;28;25099;-53
2023/10/10 00:52:48;;;;;;;;;;;14.90;99.90;;;;;;5039535;28;25069;-54
2023/10/10 00:55:14;;;;;;;;;;;14.90;99.90;;;;;;5020861;28;25163;-53
2023/10/10 00:57:40;;;;;;;;;;;14.90;99.90;;;;;;5037740;28;25098;-53
2023/10/10 01:00:14;;;;;;;;;;;14.90;99.90;;;;;;5038076;28;25096;-54
2023/10/10 01:02:42;;;;;;;;;;;14.90;99.90;;;;;;5039017;28;25145;-54
2023/10/10 01:05:14;;;;;;;;;;;14.90;99.90;;;;;;5039066;28;25084;-54
2023/10/10 01:07:44;;;;;;;;;;;14.90;99.90;;;;;;5038116;28;25102;-55
2023/10/10 01:10:16;;;;;;;;;;;14.90;99.90;;;;;;5126479;22;25088;-55
2023/10/10 01:12:42;;;;;;;;;;;15.00;99.90;;;;;;5061285;28;25116;-54
2023/10/10 01:15:15;;;;;;;;;;;14.90;99.90;;;;;;5041911;28;25135;-54
2023/10/10 01:17:40;;;;;;;;;;;14.90;99.90;;;;;;5060275;28;24913;-54
2023/10/10 01:20:11;;;;;;;;;;;14.90;99.90;;;;;;5060137;28;25123;-55
2023/10/10 01:22:39;;;;;;;;;;;14.90;99.90;;;;;;5060259;28;25097;-55
2023/10/10 01:25:28;;;;;;;;;;;14.90;99.90;;;;;;5060797;28;20443;-54
2023/10/10 01:27:54;;;;;;;;;;;14.90;99.90;;;;;;5060532;28;25058;-55
2023/10/10 01:30:43;;;;;;;;;;;14.90;99.90;;;;;;5060106;28;25065;-54
2023/10/10 01:33:06;;;;;;;;;;;14.80;99.90;;;;;;5059223;28;25077;-56
2023/10/10 01:35:34;;;;;;;;;;;14.80;99.90;;;;;;5058458;28;25135;-55
2023/10/10 01:37:59;;;;;;;;;;;14.80;99.90;;;;;;5057970;28;25077;-56
2023/10/10 01:40:28;;;;;;;;;;;14.80;99.90;;;;;;5061821;28;25131;-54
2023/10/10 01:42:54;;;;;;;;;;;14.70;99.90;;;;;;5061446;28;25073;-54
2023/10/10 01:45:26;;;;;;;;;;;14.80;99.90;;;;;;5062599;28;25108;-55
2023/10/10 01:48:02;;;;;;;;;;;14.80;99.90;;;;;;5061949;28;25066;-56
2023/10/10 01:50:30;;;;;;;;;;;14.70;99.90;;;;;;5063099;28;25131;-56
2023/10/10 01:52:56;;;;;;;;;;;14.80;99.90;;;;;;5060645;28;25087;-54
2023/10/10 01:55:24;;;;;;;;;;;14.80;99.90;;;;;;5061265;28;25054;-56
2023/10/10 01:57:50;;;;;;;;;;;14.70;99.90;;;;;;5061839;28;25063;-53
2023/10/10 02:02:50;;;;;;;;;;;14.60;99.90;;;;;;5062142;28;25149;-52
2023/10/10 02:05:29;;;;;;;;;;;14.60;99.90;;;;;;5061131;28;25088;-53
2023/10/10 02:07:57;;;;;;;;;;;14.70;99.90;;;;;;5060827;28;25120;-54
2023/10/10 02:10:26;;;;;;;;;;;14.60;99.90;;;;;;5062856;28;20410;-55
2023/10/10 02:12:52;;;;;;;;;;;14.60;99.90;;;;;;5062489;28;20230;-56
2023/10/10 02:15:26;;;;;;;;;;;14.60;99.90;;;;;;5060488;28;25065;-54
2023/10/10 02:17:54;;;;;;;;;;;14.70;99.90;;;;;;5060137;28;25115;-56
2023/10/10 02:22:51;;;;;;;;;;;14.70;99.90;;;;;;5062669;28;25059;-52
2023/10/10 02:28:20;;;;;;;;;;;14.80;99.90;;;;;;5062768;28;25113;-53
2023/10/10 02:30:49;;;;;;;;;;;14.70;99.90;;;;;;5062709;28;25127;-54
2023/10/10 02:33:19;;;;;;;;;;;14.80;99.90;;;;;;5063024;28;25113;-53
2023/10/10 02:36:07;;;;;;;;;;;14.80;99.90;;;;;;5062003;28;25111;-53
2023/10/10 02:38:40;;;;;;;;;;;14.80;99.90;;;;;;5062565;28;20500;-54
2023/10/10 02:43:55;;;;;;;;;;;14.80;99.90;;;;;;5062907;28;25099;-52
2023/10/10 02:46:38;;;;;;;;;;;14.80;99.90;;;;;;5062861;28;25085;-54
2023/10/10 02:51:55;;;;;;;;;;;14.80;99.90;;;;;;5061496;28;25121;-54
2023/10/10 02:54:31;;;;;;;;;;;14.80;99.90;;;;;;5063158;28;25075;-57
2023/10/10 02:56:58;;;;;;;;;;;14.80;99.90;;;;;;5060921;28;25080;-54
2023/10/10 02:59:30;;;;;;;;;;;14.80;99.90;;;;;;5062612;28;25064;-54
2023/10/10 03:01:57;;;;;;;;;;;14.70;99.90;;;;;;5063148;28;20428;-54
2023/10/10 03:04:31;;;;;;;;;;;14.80;99.90;;;;;;5063391;28;20305;-51
2023/10/10 03:07:05;;;;;;;;;;;14.90;99.90;;;;;;5061137;28;25146;-54
2023/10/10 03:10:14;;;;;;;;;;;14.80;99.90;;;;;;5062782;28;25140;-54
2023/10/10 03:12:32;;;;;;;;;;;14.90;99.90;;;;;;5062036;28;25103;-54
2023/10/10 03:15:15;;;;;;;;;;;14.80;99.90;;;;;;5059764;28;25065;-55
2023/10/10 03:17:48;;;;;;;;;;;14.80;99.90;;;;;;5062148;28;25100;-53
2023/10/10 03:23:18;;;;;;;;;;;14.90;99.90;;;;;;5062214;28;20401;-54
2023/10/10 03:26:04;;;;;;;;;;;15.00;99.90;;;;;;5063000;28;20501;-53
2023/10/10 03:28:32;;;;;;;;;;;15.00;99.90;;;;;;5062934;28;20405;-54
2023/10/10 03:36:13;;;;;;;;;;;15.00;99.90;;;;;;5061447;28;25152;-54
2023/10/10 05:25:13;;;;;;;;;;;15.30;99.90;;;;;;5062258;28;25072;-54
2023/10/10 05:27:41;;;;;;;;;;;15.30;99.90;;;;;;5061973;28;25070;-54
2023/10/10 05:30:23;;;;;;;;;;;15.30;99.90;;;;;;5061586;28;25082;-54
2023/10/10 05:33:01;;;;;;;;;;;15.30;99.90;;;;;;5062742;28;25080;-55
2023/10/10 05:35:28;;;;;;;;;;;15.40;99.90;;;;;;5062789;28;25072;-53
2023/10/10 05:37:53;;;;;;;;;;;15.30;99.90;;;;;;5062959;28;25070;-54
2023/10/10 05:40:20;;;;;;;;;;;15.40;99.90;;;;;;5063004;28;25140;-54
2023/10/10 05:42:45;;;;;;;;;;;15.40;99.90;;;;;;5061447;28;25077;-54
2023/10/10 05:45:13;;;;;;;;;;;15.40;99.90;;;;;;5060720;28;25065;-54
2023/10/10 05:47:42;;;;;;;;;;;15.30;99.90;;;;;;5063206;28;25118;-54
2023/10/10 05:50:10;;;;;;;;;;;15.40;99.90;;;;;;5060239;28;25122;-55
2023/10/10 05:52:39;;;;;;;;;;;15.30;99.90;;;;;;5062379;28;25083;-55
2023/10/10 05:55:05;;;;;;;;;;;15.40;99.90;;;;;;5061411;28;25057;-55
2023/10/10 05:57:33;;;;;;;;;;;15.40;99.90;;;;;;5060384;28;25072;-52
2023/10/10 05:59:59;;;;;;;;;;;15.30;99.90;;;;;;5062051;28;25066;-53
2023/10/10 06:02:27;;;;;;;;;;;15.40;99.90;;;;;;5062056;28;25191;-54
2023/10/10 06:04:53;;;;;;;;;;;15.30;99.90;;;;;;5061907;28;25068;-56
2023/10/10 06:07:20;;;;;;;;;;;15.30;99.90;;;;;;5060937;28;25065;-54
2023/10/10 06:09:48;;;;;;;;;;;15.40;99.90;;;;;;5061702;28;25076;-54
2023/10/10 06:12:15;;;;;;;;;;;15.30;99.90;;;;;;5061653;28;25112;-56
2023/10/10 06:14:42;;;;;;;;;;;15.40;99.90;;;;;;5061597;28;25146;-56
2023/10/10 06:17:08;;;;;;;;;;;15.40;99.90;;;;;;5061457;28;25105;-56
2023/10/10 06:19:34;;;;;;;;;;;15.30;99.90;;;;;;5064059;28;20228;-56
2023/10/10 06:22:02;;;;;;;;;;;15.30;99.90;;;;;;5043077;28;25094;-55
2023/10/10 06:24:28;;;;;;;;;;;15.30;99.90;;;;;;5063315;28;20425;-55
2023/10/10 06:27:00;;;;;;;;;;;15.30;99.90;;;;;;5062829;28;25092;-55
2023/10/10 06:29:29;;;;;;;;;;;15.30;99.90;;;;;;5062556;28;25062;-55
2023/10/10 06:31:57;;;;;;;;;;;15.40;99.90;;;;;;5063033;28;25089;-54
2023/10/10 06:34:23;;;;;;;;;;;15.30;99.90;;;;;;5064715;28;20436;-55
2023/10/10 06:36:49;;;;;;;;;;;15.30;99.90;;;;;;5063106;28;25117;-55
2023/10/10 06:41:42;;;;;;;;;;;15.20;99.90;;;;;;5064779;28;25137;-55
2023/10/10 06:44:14;;;;;;;;;;;15.20;99.90;;;;;;5063626;28;25094;-54
2023/10/10 06:46:40;;;;;;;;;;;15.20;99.90;;;;;;5063337;28;25110;-51
2023/10/10 06:49:06;;;;;;;;;;;15.20;99.90;;;;;;5061070;28;25105;-54
2023/10/10 06:51:33;;;;;;;;;;;15.20;99.90;;;;;;5062108;28;20296;-54
2023/10/10 06:53:59;;;;;;;;;;;15.20;99.90;;;;;;5062543;28;25154;-53
2023/10/10 06:56:53;;;;;;;;;;;15.20;99.90;;;;;;5061185;28;25108;-55
2023/10/10 06:59:25;;;;;;;;;;;15.20;99.90;;;;;;5062934;28;25096;-53
2023/10/10 07:01:50;;;;;;;;;;;15.20;99.90;;;;;;5062200;28;25066;-56
2023/10/10 07:04:16;;;;;;;;;;;15.30;99.90;;;;;;5061052;28;25067;-53
2023/10/10 07:06:48;;;;;;;;;;;15.40;99.90;;;;;;5062639;28;25058;-56
2023/10/10 07:09:14;;;;;;;;;;;15.40;99.90;;;;;;5060401;28;25065;-55
2023/10/10 07:11:43;;;;;;;;;;;15.40;99.90;;;;;;5061813;28;25137;-54
2023/10/10 07:14:10;;;;;;;;;;;15.50;99.90;;;;;;5062329;28;20917;-54
2023/10/10 07:16:39;;;;;;;;;;;15.50;99.90;;;;;;5061926;28;25105;-53
2023/10/10 07:19:19;;;;;;;;;;;15.60;99.90;;;;;;5061221;28;25080;-55
2023/10/10 07:21:45;;;;;;;;;;;15.70;99.90;;;;;;5061437;28;25068;-55
2023/10/10 07:24:14;;;;;;;;;;;15.80;99.90;;;;;;5060876;28;25064;-54
2023/10/10 07:26:41;;;;;;;;;;;15.80;99.90;;;;;;5061571;28;25103;-51
2023/10/10 07:31:53;;;;;;;;;;;15.90;99.90;;;;;;5062465;28;25156;-50
2023/10/10 07:34:19;;;;;;;;;;;15.80;99.90;;;;;;5061993;28;20417;-51
2023/10/10 07:36:50;;;;;;;;;;;15.80;99.90;;;;;;5061625;28;25087;-51
2023/10/10 07:39:35;;;;;;;;;;;16.00;99.90;;;;;;5061357;28;25083;-55
2023/10/10 07:42:01;;;;;;;;;;;16.00;99.90;;;;;;5041705;28;25082;-53
2023/10/10 07:44:30;;;;;;;;;;;16.20;99.90;;;;;;5041442;28;25079;-53
2023/10/10 07:49:54;;;;;;;;;;;16.20;99.90;;;;;;5016791;28;25061;-56
2023/10/10 07:52:22;;;;;;;;;;;16.30;99.90;;;;;;5039129;28;25140;-55
2023/10/10 07:54:51;;;;;;;;;;;16.40;99.90;;;;;;5041753;28;25098;-53
2023/10/10 07:57:26;;;;;;;;;;;16.40;99.90;;;;;;5058483;28;25105;-55
2023/10/10 07:59:57;;;;;;;;;;;16.50;99.90;;;;;;5059850;28;25078;-57
2023/10/10 08:02:31;;;;;;;;;;;16.70;99.90;;;;;;5060266;28;25073;-56
2023/10/10 08:05:00;;;;;;;;;;;16.60;99.90;;;;;;5058465;28;25111;-56
2023/10/10 08:07:26;;;;;;;;;;;16.70;99.90;;;;;;5057881;28;25172;-55
2023/10/10 08:10:14;;;;;;;;;;;16.80;99.90;;;;;;5058582;28;25128;-55
2023/10/10 08:12:38;;;;;;;;;;;16.70;99.90;;;;;;5053099;28;25070;-56
2023/10/10 08:15:19;;;;;;;;;;;16.70;99.90;;;;;;5060408;28;25074;-56
2023/10/10 08:17:52;;;;;;;;;;;16.70;99.90;;;;;;5060458;28;25071;-56
2023/10/10 08:23:08;;;;;;;;;;;16.90;99.90;;;;;;5059348;28;20463;-56
2023/10/10 08:25:34;;;;;;;;;;;16.90;99.90;;;;;;5059790;28;25076;-56
2023/10/10 08:28:00;;;;;;;;;;;17.00;99.90;;;;;;5058992;28;25115;-55
2023/10/10 08:30:26;;;;;;;;;;;17.00;99.90;;;;;;5060814;28;25095;-56
2023/10/10 08:32:55;;;;;;;;;;;17.00;99.90;;;;;;5060368;28;25106;-57
2023/10/10 08:35:22;;;;;;;;;;;17.10;99.90;;;;;;5062021;28;25189;-55
2023/10/10 08:37:47;;;;;;;;;;;17.00;99.90;;;;;;5061556;28;25138;-56
2023/10/10 08:40:19;;;;;;;;;;;17.00;99.90;;;;;;5063914;28;24117;-55
2023/10/10 08:42:51;;;;;;;;;;;16.90;99.90;;;;;;5060885;28;20424;-56
2023/10/10 08:45:23;;;;;;;;;;;16.90;99.90;;;;;;5059631;28;25079;-55
2023/10/10 08:48:01;;;;;;;;;;;16.90;99.90;;;;;;5059312;28;25100;-55
2023/10/10 08:50:27;;;;;;;;;;;17.10;99.90;;;;;;5061128;28;25062;-55
2023/10/10 08:52:53;;;;;;;;;;;17.00;99.90;;;;;;5061535;28;25066;-55
2023/10/10 08:55:26;;;;;;;;;;;17.00;99.90;;;;;;5061794;28;25060;-56
2023/10/10 08:57:58;;;;;;;;;;;17.10;99.90;;;;;;5062046;28;25075;-57
2023/10/10 09:00:27;;;;;;;;;;;17.20;99.90;;;;;;5061206;28;25066;-55
2023/10/10 09:02:55;;;;;;;;;;;17.30;99.90;;;;;;5062883;28;25088;-56
2023/10/10 09:05:23;;;;;;;;;;;17.40;99.90;;;;;;5062735;28;25065;-55
2023/10/10 09:07:49;;;;;;;;;;;17.40;99.90;;;;;;5061997;28;25101;-54
2023/10/10 09:10:15;;;;;;;;;;;17.30;99.90;;;;;;5060385;28;25165;-54
2023/10/10 09:12:58;;;;;;;;;;;17.40;99.90;;;;;;5063470;28;25103;-55
2023/10/10 09:15:24;;;;;;;;;;;17.50;99.90;;;;;;5062980;28;25135;-55
2023/10/10 09:17:55;;;;;;;;;;;17.60;99.90;;;;;;5062786;28;25091;-55
2023/10/10 09:20:28;;;;;;;;;;;17.60;99.90;;;;;;5062680;28;25141;-55
2023/10/10 09:22:56;;;;;;;;;;;17.70;99.90;;;;;;5061808;28;25125;-55
2023/10/10 09:25:41;;;;;;;;;;;17.80;99.90;;;;;;5061336;28;25149;-56
2023/10/10 09:28:10;;;;;;;;;;;17.80;99.90;;;;;;5061337;28;25080;-55
2023/10/10 09:30:45;;;;;;;;;;;17.80;99.90;;;;;;5061334;28;25101;-56
2023/10/10 09:33:16;;;;;;;;;;;18.00;99.90;;;;;;5062115;28;25157;-55
2023/10/10 09:35:48;;;;;;;;;;;17.90;99.90;;;;;;5062198;28;25110;-55
2023/10/10 09:38:19;;;;;;;;;;;18.00;99.90;;;;;;5061831;28;25072;-55
2023/10/10 09:40:47;;;;;;;;;;;18.30;99.90;;;;;;5063488;28;20406;-55
2023/10/10 09:43:35;;;;;;;;;;;18.60;99.90;;;;;;5060479;28;25073;-55
2023/10/10 09:46:19;;;;;;;;;;;18.90;99.90;;;;;;5062825;28;25113;-56
2023/10/10 09:48:59;;;;;;;;;;;19.30;99.90;;;;;;5061331;28;25066;-56
2023/10/10 09:52:47;;;;;;;;;;;19.60;99.90;;;;;;5061250;28;25076;-55
2023/10/10 09:54:16;;;;;;;;;;;19.60;99.90;;;;;;5062612;28;25070;-55
2023/10/10 09:56:46;;;;;;;;;;;19.80;99.90;;;;;;5063802;28;25072;-55
2023/10/10 09:59:13;;;;;;;;;;;19.70;99.90;;;;;;5062644;28;25137;-56
2023/10/10 10:01:44;;;;;;;;;;;19.40;99.90;;;;;;5061644;28;25136;-54
2023/10/10 10:04:13;;;;;;;;;;;19.50;99.90;;;;;;5063063;28;25121;-55
2023/10/10 10:06:54;;;;;;;;;;;19.50;99.90;;;;;;5061173;28;25087;-56
2023/10/10 10:09:31;;;;;;;;;;;19.70;99.90;;;;;;5061630;28;27139;-55
2023/10/10 10:12:19;;;;;;;;;;;19.70;99.90;;;;;;5062873;28;25192;-55
2023/10/10 10:14:47;;;;;;;;;;;19.50;99.90;;;;;;5062651;28;25073;-54
2023/10/10 10:17:23;;;;;;;;;;;19.50;99.90;;;;;;5061713;28;25072;-56
2023/10/10 10:19:49;;;;;;;;;;;19.50;99.90;;;;;;5061360;28;25086;-55
2023/10/10 10:22:17;;;;;;;;;;;19.70;99.90;;;;;;5061996;28;25065;-55
2023/10/10 10:24:46;;;;;;;;;;;19.90;99.90;;;;;;5061846;28;25092;-55
2023/10/10 10:27:25;;;;;;;;;;;20.10;99.90;;;;;;5062301;28;25054;-55
2023/10/10 10:29:54;;;;;;;;;;;20.00;99.90;;;;;;5058381;28;25119;-56
2023/10/10 10:32:23;;;;;;;;;;;20.20;99.90;;;;;;5042297;28;25080;-55
2023/10/10 10:34:55;;;;;;;;;;;20.20;99.90;;;;;;5043827;28;25150;-55
2023/10/10 10:37:23;;;;;;;;;;;20.30;99.90;;;;;;5043348;28;25153;-54
2023/10/10 10:42:47;;;;;;;;;;;20.30;99.90;;;;;;5043744;28;20825;-55
2023/10/10 10:45:26;;;;;;;;;;;20.30;99.90;;;;;;5042584;28;25123;-55
2023/10/10 10:47:59;;;;;;;;;;;20.40;99.90;;;;;;5042230;28;25156;-55
2023/10/10 10:50:40;;;;;;;;;;;20.30;99.90;;;;;;5042428;28;25069;-56
2023/10/10 10:53:08;;;;;;;;;;;20.30;99.90;;;;;;5042655;28;25123;-57
2023/10/10 11:14:45;;;;;;;15.95;11.75;;;20.60;99.90;;;;;;5076895;27;20916;-64
2023/10/10 11:17:18;;;;;;;15.77;12.10;;;21.80;99.90;;;;;;5063154;28;20059;-63
2023/10/10 11:19:46;;;;;;;14.13;10.73;;;23.00;99.90;;;;;;5062588;28;20051;-63
2023/10/10 11:22:17;;;;;;;12.07;10.05;;;24.10;99.90;;;;;;5062277;28;20049;-63
2023/10/10 11:24:47;;;;;;;13.75;9.77;;;25.00;99.90;;;;;;5062759;28;20044;-63
2023/10/10 11:29:47;;;;;;;11.00;8.80;;;26.20;99.90;;;;;;5070327;28;20052;-63
2023/10/10 11:32:29;;;;;;;11.60;8.60;;;26.30;99.90;;;;;;5063123;28;20534;-62
2023/10/10 11:35:17;;;;;;;10.32;9.02;;;25.90;99.90;;;;;;5062775;28;20045;-62
2023/10/10 11:37:47;;;;;;;12.00;9.13;;;25.50;99.90;;;;;;5072984;28;20640;-62
2023/10/10 11:43:04;;;;;;;19.58;10.45;;;24.60;99.90;;;;;;5065923;28;20134;-63
2023/10/10 11:45:31;;;;;;;13.85;9.85;;;;;;;;;;5069118;28;20036;-66
2023/10/10 11:48:05;;;;;;;13.75;10.23;;;;;;;;;;5072305;28;20044;-63
2023/10/10 11:50:47;;;;;;;13.95;9.95;;;;;;;;;;5069838;28;20064;-62
2023/10/10 11:53:15;;;;;;;13.60;10.27;;;;;;;;;;5073733;28;20174;-62
2023/10/10 11:55:41;;;;;;;11.80;10.00;;;;;;;;;;5067712;28;20059;-64
2023/10/10 11:58:16;;;;;;;14.80;8.90;;;;;;;;;;5110864;28;20384;-62
2023/10/10 12:00:43;;;;;;;12.18;9.23;;;665.60;1254.40;;;;;;5077926;28;20053;-69
2023/10/10 12:03:13;;;;;;;13.10;8.77;;;640.00;1177.60;;;;;;5062176;28;20049;-69
2023/10/10 12:05:47;;;;;;;11.45;8.70;;;614.40;1203.20;;;;;;5067531;28;20416;-72
2023/10/10 12:08:15;;;;;;;13.70;9.00;;;588.80;1228.80;;;;;;5081331;28;20119;-63
2023/10/10 12:10:52;;;;;;;10.50;8.98;;;588.80;1254.40;;;;;;5060726;28;20129;-67
2023/10/10 12:16:10;;;;;;;10.32;8.38;;;588.80;1280.00;;;;;;5061000;28;20098;-68
2023/10/10 12:18:43;;;;;;;12.30;8.93;;;588.80;1280.00;;;;;;5061429;28;20041;-67
2023/10/10 12:21:10;;;;;;;12.43;8.47;;;588.80;1280.00;;;;;;5075275;28;20048;-68
2023/10/10 12:23:48;;;;;;;11.65;8.50;;;588.80;1280.00;;;;;;5077933;28;20044;-66
2023/10/10 12:26:23;;;;;;;13.82;9.02;;;588.80;1305.60;;;;;;5056948;28;20045;-67
2023/10/10 12:28:52;;;;;;;14.30;9.05;;;588.80;1305.60;;;;;;5053252;28;20048;-66
2023/10/10 12:31:18;;;;;;;14.38;9.27;;;588.80;1305.60;;;;;;5067722;28;20071;-67
2023/10/10 12:33:48;;;;;;;12.75;9.70;;;588.80;1305.60;;;;;;5066249;28;20044;-66
2023/10/10 12:36:17;;;;;;;15.77;9.77;;;588.80;1305.60;;;;;;5066660;28;20410;-67
2023/10/10 12:38:44;;;;;;;11.65;10.15;;;588.80;1305.60;;;;;;5097447;28;20060;-67
2023/10/10 12:41:12;;;;;;;12.43;10.10;;;588.80;1331.20;;;;;;5061360;28;20116;-67
2023/10/10 12:43:38;;;;;;;12.65;9.35;;;588.80;1280.00;;;;;;5060460;28;20036;-67
2023/10/10 12:46:06;;;;;;;11.70;9.40;;;588.80;1331.20;;;;;;5047913;28;20564;-68
2023/10/10 12:48:39;;;;;;;13.43;10.07;;;588.80;1280.00;;;;;;5046764;28;20146;-67
2023/10/10 12:51:09;;;;;;;13.73;10.35;;;588.80;1280.00;;;;;;5065168;28;20701;-66
2023/10/10 12:53:39;;;;;;;13.70;10.90;;;588.80;1280.00;;;;;;5064728;28;20552;-68
2023/10/10 12:56:06;;;;;;;13.05;10.68;;;588.80;1280.00;;;;;;5062276;28;20044;-66
2023/10/10 12:58:32;;;;;;;17.42;11.10;;;588.80;1305.60;;;;;;5056663;28;20077;-65
2023/10/10 13:00:59;;;;;;;13.18;10.77;;;588.80;1305.60;;;;;;5063014;28;20500;-66
2023/10/10 13:03:32;;;;;;;12.70;10.80;;;588.80;1305.60;;;;;;5048797;28;20056;-67
2023/10/10 13:06:01;;;;;;;11.57;9.88;;;588.80;1305.60;;;;;;5066113;28;20040;-66
2023/10/10 13:08:47;;;;;;;13.93;10.98;;;588.80;1305.60;;;;;;5051488;28;20044;-68
2023/10/10 13:11:16;;;;;;;16.38;10.45;;;588.80;1305.60;;;;;;5050795;28;20072;-67
2023/10/10 13:13:45;;;;;;;15.65;10.18;;;588.80;1280.00;;;;;;5052709;28;20060;-66
2023/10/10 13:19:11;;;;;;;14.45;11.23;;;588.80;1280.00;;;;;;5052090;28;20052;-67
2023/10/10 13:21:38;;;;;;;14.85;10.00;;;588.80;1280.00;;;;;;5051611;28;20055;-67
2023/10/10 13:24:09;;;;;;;15.80;10.25;;;588.80;1305.60;;;;;;5050400;28;20094;-74
2023/10/10 13:26:38;;;;;;;17.75;11.20;;;588.80;1331.20;;;;;;5051637;28;20037;-61
2023/10/10 13:29:07;;;;;;;16.92;11.20;;;614.40;1254.40;;;;;;5050918;28;20037;-61
2023/10/10 13:31:33;;;;;;;17.27;11.10;;;588.80;1228.80;;;;;;5060147;28;20123;-62
2023/10/10 13:33:59;;;;;;;18.52;11.75;;;588.80;1254.40;;;;;;5051511;28;20506;-61
2023/10/10 13:36:25;;;;;;;16.40;11.95;;;588.80;1254.40;;;;;;5047782;28;20041;-61
2023/10/10 13:38:57;;;;;;;16.77;11.68;;;588.80;1254.40;;;;;;5052813;28;20046;-62
2023/10/10 13:41:27;;;;;;;15.13;11.48;;;588.80;1280.00;;;;;;5052054;28;20768;-63
2023/10/10 13:43:59;;;;;;;16.17;11.35;;;588.80;1280.00;;;;;;5051792;28;20044;-61
2023/10/10 13:46:26;;;;;;;15.48;10.70;;;588.80;1305.60;;;;;;5058907;28;20049;-63
2023/10/10 13:48:52;;;;;;;14.25;10.57;;;588.80;1305.60;;;;;;5050306;28;20041;-63
2023/10/10 13:51:17;;;;;;;15.18;10.02;;;588.80;1280.00;;;;;;5050064;28;20560;-64
2023/10/10 13:53:44;;;;;;;16.65;10.60;;;588.80;1305.60;;;;;;5051798;28;20626;-65
2023/10/10 13:56:13;;;;;;;27.33;15.45;;;588.80;1305.60;;;;;;5051428;28;20048;-64
2023/10/10 13:58:46;;;;;;;13.32;10.18;;;588.80;1331.20;;;;;;5050724;28;20125;-64
2023/10/10 14:01:24;;;;;;;14.75;10.15;;;588.80;1356.80;;;;;;5050605;28;20111;-63
2023/10/10 14:03:56;;;;;;;14.07;10.38;;;588.80;1356.80;;;;;;5050207;28;20060;-62
2023/10/10 14:06:22;;;;;;;15.88;11.48;;;588.80;1356.80;;;;;;5050813;28;20044;-65
2023/10/10 14:08:48;;;;;;;16.00;10.13;;;563.20;1382.40;;;;;;5051574;28;20036;-61
2023/10/10 14:11:21;;;;;;;15.45;10.35;;;563.20;1408.00;;;;;;5050969;28;20113;-60
2023/10/10 14:13:51;;;;;;;17.10;10.80;;;563.20;1408.00;;;;;;5050601;28;20139;-61
2023/10/10 14:16:18;;;;;;;13.40;9.80;;;563.20;1433.60;;;;;;5083483;28;20045;-60
2023/10/10 14:18:51;;;;;;;13.95;9.85;;;563.20;1433.60;;;;;;5051335;28;20067;-61
2023/10/10 14:21:25;;;;;;;16.45;10.00;;;563.20;1433.60;;;;;;5082332;28;20045;-61
2023/10/10 14:24:14;;;;;;;12.10;8.95;;;563.20;1433.60;;;;;;5052646;28;20056;-62
2023/10/10 14:26:43;;;;;;;11.82;8.80;;;563.20;1433.60;;;;;;5049433;28;20041;-62
2023/10/10 14:29:13;;;;;;;12.02;8.85;;;563.20;1459.20;;;;;;5051194;28;20475;-61
2023/10/10 14:31:42;;;;;;;12.98;9.00;;;563.20;1433.60;;;;;;5051117;28;20041;-61
2023/10/10 14:34:10;;;;;;;14.98;9.75;;;563.20;1459.20;;;;;;5049952;28;20446;-61
2023/10/10 14:36:41;;;;;;;13.35;8.40;;;563.20;1433.60;;;;;;5049540;28;20033;-62
2023/10/10 14:39:28;;;;;;;11.73;8.35;;;563.20;1433.60;;;;;;5050368;28;20454;-61
2023/10/10 14:42:00;;;;;;;12.57;8.98;;;563.20;1433.60;;;;;;5050666;28;20146;-61
2023/10/10 14:44:27;;;;;;;12.48;7.95;;;563.20;1433.60;;;;;;5050123;28;20123;-61
2023/10/10 14:46:57;;;;;;;10.15;7.93;;;563.20;1433.60;;;;;;5050195;28;20135;-59
2023/10/10 14:49:29;;;;;;;13.68;8.35;;;563.20;1433.60;;;;;;5050834;28;20053;-60
2023/10/10 14:52:03;;;;;;;14.05;10.68;;;563.20;1433.60;;;;;;5051957;28;20040;-60
2023/10/10 14:54:31;;;;;;;13.75;10.50;;;563.20;1433.60;;;;;;5049634;28;20052;-60
2023/10/10 14:56:56;;;;;;;13.70;10.00;;;563.20;1433.60;;;;;;5049067;28;20507;-60
2023/10/10 14:59:31;;;;;;;15.57;11.68;;;563.20;1459.20;;;;;;5049306;28;20058;-60
2023/10/10 15:01:59;;;;;;;17.67;11.30;;;563.20;1459.20;;;;;;5050896;28;20033;-59
2023/10/10 15:04:28;;;;;;;16.02;11.18;;;563.20;1459.20;;;;;;5051637;28;20049;-61
2023/10/10 15:06:54;;;;;;;15.95;12.25;;;563.20;1459.20;;;;;;5049638;28;20114;-60
2023/10/10 15:09:23;;;;;;;16.55;11.18;;;563.20;1459.20;;;;;;5051707;28;21045;-60
2023/10/10 15:11:50;;;;;;;17.05;12.82;;;563.20;1459.20;;;;;;5083154;28;20044;-61
2023/10/10 15:14:19;;;;;;;15.77;12.00;;;563.20;1459.20;;;;;;5050204;28;20056;-60
2023/10/10 15:16:47;;;;;;;20.10;13.40;;;563.20;1459.20;;;;;;5052116;28;20051;-62
2023/10/10 15:19:13;;;;;;;19.33;13.38;;;563.20;1459.20;;;;;;5049920;28;20047;-62
2023/10/10 15:21:39;;;;;;;19.92;13.55;;;563.20;1459.20;;;;;;5050187;28;20033;-61
2023/10/10 15:24:11;;;;;;;19.98;13.95;;;563.20;1459.20;;;;;;5048258;28;20052;-63
2023/10/10 15:26:37;;;;;;;18.60;13.00;;;563.20;1459.20;;;;;;5040472;28;20037;-64
2023/10/10 15:29:04;;;;;;;19.63;13.35;;;563.20;1459.20;;;;;;5052018;28;20443;-63
2023/10/10 15:31:31;;;;;;;19.48;11.95;;;563.20;1459.20;;;;;;5041394;28;20041;-62
2023/10/10 15:33:57;;;;;;;21.13;14.88;;;563.20;1459.20;;;;;;5050446;28;20144;-64
2023/10/10 15:36:30;;;;;;;19.45;13.52;;;563.20;1459.20;;;;;;5051492;28;20523;-65
2023/10/10 15:38:57;;;;;;;18.25;13.20;;;563.20;1484.80;;;;;;5050836;28;20048;-65
2023/10/10 15:41:25;;;;;;;16.05;12.05;;;563.20;1484.80;;;;;;5050795;28;20119;-62
2023/10/10 15:43:52;;;;;;;27.13;14.68;;;563.20;1484.80;;;;;;5051434;28;20041;-64
2023/10/10 15:46:25;;;;;;;22.60;15.20;;;563.20;1484.80;;;;;;5052219;28;20419;-64
2023/10/10 15:48:52;;;;;;;23.08;16.20;;;563.20;1484.80;;;;;;5053551;28;20526;-64
2023/10/10 15:51:21;;;;;;;20.83;15.82;;;563.20;1484.80;;;;;;5050573;28;20037;-64
2023/10/10 15:53:48;;;;;;;20.35;14.80;;;563.20;1484.80;;;;;;5050493;28;20047;-64
2023/10/10 20:30:03;;;;;;;11.00;6.38;;;;;;;;;;5125529;27;20376;-64
2023/10/10 20:32:29;;;;;;;10.52;6.10;;;;;;;;;;5106767;27;20603;-63
2023/10/10 20:34:55;;;;;;;11.10;6.15;;;;;;;;;;5113553;28;20476;-66
2023/10/10 20:37:21;;;;;;;11.52;5.90;;;563.20;2432.00;;;;;;5115173;28;20043;-68
2023/10/10 20:39:47;;;;;;;11.30;5.88;;;563.20;1484.80;;;;;;5112779;27;20436;-66
2023/10/10 20:42:13;;;;;;;10.60;5.88;;;563.20;1484.80;;;;;;5106122;28;20046;-67
2023/10/10 20:44:39;;;;;;;9.82;5.95;;;563.20;1561.60;;;;;;5096946;28;20480;-61
2023/10/10 20:47:04;;;;;;;8.70;5.63;;;563.20;1484.80;;;;;;5113382;27;20035;-60
2023/10/10 20:49:33;;;;;;;9.95;6.13;;;563.20;1484.80;;;;;;5114031;27;20524;-63
2023/10/10 20:51:58;;;;;;;8.98;5.53;;;563.20;1484.80;;;;;;5096984;28;20140;-60
2023/10/10 20:57:52;;;;;;;9.98;5.70;;;563.20;1152.00;;;;;;5010360;28;20445;-61
2023/10/10 21:00:22;;;;;;;10.02;5.53;;;563.20;1484.80;;;;;;5013099;28;20492;-62
2023/10/10 21:02:49;;;;;;;11.55;5.90;;;563.20;1484.80;;;;;;4994205;28;20092;-61
2023/10/10 21:05:16;;;;;;;8.07;5.57;;;588.80;1433.60;;;;;;5017933;28;20058;-64
2023/10/10 21:07:42;;;;;;;9.55;5.75;;;563.20;1356.80;;;;;;4992555;28;20046;-67
2023/10/10 21:10:11;;;;;;;11.68;6.15;;;563.20;1356.80;;;;;;4994072;28;20520;-64
2023/10/10 21:12:38;;;;;;;7.93;5.25;;;;;;;;;;5002890;28;20042;-62